Time;durP1;ratioP1;P1;durP2;ratioP2;P2;SDS_P1;SDS_P2;PMS_P1;PMS_P2;Temp;Humidity;BMP_temperature;BMP_pressure;BME280_temperature;BME280_humidity;BME280_pressure;Samples;Min_cycle;Max_cycle;Signal;HPM_P1;HPM_P2
2021/09/09 00:02:14;;;;;;;;;;;;;;;24.79;73.73;100674.50;7271925;19;153829;-51
2021/09/09 00:04:41;;;;;;;;;;;;;;;24.78;73.65;100679.31;7274487;19;152206;-51
2021/09/09 00:07:08;;;;;;;;;;;;;;;24.78;73.70;100673.66;7273302;19;152787;-51
2021/09/09 00:09:35;;;;;;;;;;;;;;;24.79;74.22;100669.66;7270175;19;153390;-51
2021/09/09 00:12:01;;;;;;;;;;;;;;;24.79;74.12;100654.72;7282201;19;152330;-51
2021/09/09 00:14:28;;;;;;;;;;;;;;;24.79;73.53;100666.84;7271263;19;154304;-51
2021/09/09 00:16:55;;;;;;;;;;;;;;;24.80;74.23;100667.66;7272941;19;152557;-51
2021/09/09 00:19:22;;;;;;;;;;;;;;;24.80;73.94;100664.84;7269989;19;151716;-51
2021/09/09 00:21:48;;;;;;;;;;;;;;;24.80;74.15;100667.66;7265870;19;153786;-51
2021/09/09 00:24:15;;;;;;;;;;;;;;;24.80;74.00;100667.66;7275285;19;152140;-51
2021/09/09 00:26:42;;;;;;;;;;;;;;;24.82;74.60;100665.31;7272845;19;151938;-51
2021/09/09 00:29:09;;;;;;;;;;;;;;;24.80;74.10;100657.16;7272632;19;153589;-51
2021/09/09 00:31:35;;;;;;;;;;;;;;;24.82;73.90;100673.78;7271566;19;152068;-51
2021/09/09 00:34:02;;;;;;;;;;;;;;;24.81;74.33;100672.97;7281784;19;153316;-51
2021/09/09 00:36:29;;;;;;;;;;;;;;;24.83;74.49;100661.31;7271539;19;151820;-50
2021/09/09 00:38:56;;;;;;;;;;;;;;;24.84;73.86;100657.34;7277765;19;153453;-51
2021/09/09 00:41:23;;;;;;;;;;;;;;;24.84;74.20;100650.84;7281704;19;153571;-51
2021/09/09 00:43:50;;;;;;;;;;;;;;;24.83;74.56;100643.53;7281279;19;152153;-51
2021/09/09 00:46:20;;;;;;;;;;;;;;;24.84;74.51;100650.84;7280537;19;154286;-51
2021/09/09 00:48:47;;;;;;;;;;;;;;;24.82;74.64;100642.69;7277277;19;153391;-51
2021/09/09 00:51:13;;;;;;;;;;;;;;;24.84;74.59;100643.19;7279600;19;151835;-51
2021/09/09 00:53:42;;;;;;;;;;;;;;;24.84;74.44;100639.53;7282836;19;154487;-50
2021/09/09 00:56:09;;;;;;;;;;;;;;;24.84;74.32;100631.91;7279223;19;151555;-50
2021/09/09 00:58:36;;;;;;;;;;;;;;;24.83;74.80;100633.06;7279548;19;153428;-51
2021/09/09 01:01:02;;;;;;;;;;;;;;;24.83;74.46;100624.59;7274423;19;152878;-51
2021/09/09 01:03:29;;;;;;;;;;;;;;;24.84;74.41;100631.91;7280657;19;153316;-50
2021/09/09 01:05:56;;;;;;;;;;;;;;;24.85;74.45;100624.25;7277588;19;153244;-51
2021/09/09 01:08:23;;;;;;;;;;;;;;;24.85;74.28;100627.88;7280358;19;153972;-51
2021/09/09 01:10:49;;;;;;;;;;;;;;;24.86;74.38;100632.38;7278317;19;151878;-51
2021/09/09 01:13:16;;;;;;;;;;;;;;;24.87;74.23;100631.22;7277387;19;152207;-50
2021/09/09 01:15:44;;;;;;;;;;;;;;;24.87;74.45;100634.06;7285227;19;154066;-51
2021/09/09 01:18:11;;;;;;;;;;;;;;;24.86;74.72;100638.03;7278000;19;152944;-51
2021/09/09 01:20:39;;;;;;;;;;;;;;;24.86;74.23;100638.03;7275354;19;154066;-51
2021/09/09 01:23:06;;;;;;;;;;;;;;;24.88;74.16;100637.72;7277180;19;152241;-51
2021/09/09 01:25:33;;;;;;;;;;;;;;;24.87;73.96;100634.06;7278319;19;153126;-51
2021/09/09 01:28:00;;;;;;;;;;;;;;;24.89;74.03;100640.19;7277200;19;152687;-51
2021/09/09 01:30:26;;;;;;;;;;;;;;;24.87;73.62;100645.34;7279928;19;154342;-51
2021/09/09 01:32:53;;;;;;;;;;;;;;;24.88;74.15;100647.03;7286902;19;153306;-51
2021/09/09 01:35:20;;;;;;;;;;;;;;;24.88;73.66;100657.50;7282978;19;152681;-50
2021/09/09 01:37:47;;;;;;;;;;;;;;;24.88;73.93;100655.50;7291390;19;151738;-51
2021/09/09 01:40:13;;;;;;;;;;;;;;;24.88;73.59;100643.34;7281285;19;154025;-51
2021/09/09 01:42:40;;;;;;;;;;;;;;;24.87;74.16;100648.19;7281939;19;151985;-51
2021/09/09 01:45:08;;;;;;;;;;;;;;;24.87;73.99;100647.34;7286564;19;152587;-51
2021/09/09 01:47:35;;;;;;;;;;;;;;;24.88;74.04;100651.84;7280829;19;154155;-50
2021/09/09 01:50:02;;;;;;;;;;;;;;;24.88;74.26;100646.19;7286683;19;151750;-51
2021/09/09 01:52:29;;;;;;;;;;;;;;;24.88;73.90;100644.19;7284475;19;152874;-51
2021/09/09 01:54:56;;;;;;;;;;;;;;;24.90;73.80;100639.00;7280834;19;152337;-50
2021/09/09 01:57:23;;;;;;;;;;;;;;;24.88;73.73;100637.72;7284718;19;152346;-51
2021/09/09 01:59:49;;;;;;;;;;;;;;;24.90;73.31;100638.16;7289234;19;154071;-51
2021/09/09 02:02:16;;;;;;;;;;;;;;;24.89;73.51;100643.03;7286067;19;151961;-51
2021/09/09 02:04:43;;;;;;;;;;;;;;;24.90;73.20;100644.66;7285223;19;153084;-51
2021/09/09 02:07:10;;;;;;;;;;;;;;;24.88;73.57;100649.84;7284821;19;153494;-51
2021/09/09 02:09:36;;;;;;;;;;;;;;;24.89;73.98;100648.69;7286621;19;151991;-51
2021/09/09 02:12:03;;;;;;;;;;;;;;;24.89;73.32;100648.69;7282214;19;153696;-51
2021/09/09 02:14:30;;;;;;;;;;;;;;;24.90;73.65;100646.66;7285558;19;153605;-51
2021/09/09 02:16:56;;;;;;;;;;;;;;;24.90;73.52;100643.81;7283749;19;151964;-51
2021/09/09 02:19:23;;;;;;;;;;;;;;;24.89;73.72;100642.19;7284748;19;152889;-51
2021/09/09 02:21:50;;;;;;;;;;;;;;;24.88;73.94;100646.19;7288988;19;153521;-51
2021/09/09 02:24:16;;;;;;;;;;;;;;;24.88;74.04;100646.19;7281742;19;154634;-51
2021/09/09 02:26:43;;;;;;;;;;;;;;;24.88;74.23;100643.34;7284108;19;153330;-51
2021/09/09 02:29:10;;;;;;;;;;;;;;;24.89;74.72;100645.84;7283578;19;151860;-51
2021/09/09 02:31:36;;;;;;;;;;;;;;;24.90;74.08;100652.31;7282166;19;152830;-51
2021/09/09 02:34:03;;;;;;;;;;;;;;;24.91;74.53;100642.66;7284360;19;153911;-51
2021/09/09 02:36:32;;;;;;;;;;;;;;;24.90;74.57;100647.47;7284266;19;152019;-51
2021/09/09 02:38:59;;;;;;;;;;;;;;;24.90;74.62;100641.81;7280023;19;153037;-51
2021/09/09 02:41:26;;;;;;;;;;;;;;;24.90;74.83;100644.66;7283570;19;153380;-51
2021/09/09 02:43:52;;;;;;;;;;;;;;;24.91;74.87;100639.84;7291553;19;151864;-51
2021/09/09 02:46:19;;;;;;;;;;;;;;;24.89;74.11;100648.69;7282768;19;153568;-50
2021/09/09 02:48:46;;;;;;;;;;;;;;;24.90;74.48;100652.31;7282351;19;152356;-51
2021/09/09 02:51:12;;;;;;;;;;;;;;;24.92;74.07;100647.97;7284127;19;151774;-51
2021/09/09 02:53:39;;;;;;;;;;;;;;;24.91;73.92;100651.13;7281787;19;153634;-51
2021/09/09 02:56:07;;;;;;;;;;;;;;;24.89;73.90;100656.31;7284097;19;151669;-51
2021/09/09 02:58:34;;;;;;;;;;;;;;;24.89;73.76;100645.03;7283239;19;153209;-51
2021/09/09 03:01:01;;;;;;;;;;;;;;;24.89;73.29;100650.69;7282034;19;153469;-51
2021/09/09 03:03:28;;;;;;;;;;;;;;;24.87;73.77;100655.84;7289713;19;151630;-51
2021/09/09 03:05:55;;;;;;;;;;;;;;;24.87;73.41;100656.66;7283099;19;153764;-51
2021/09/09 03:08:21;;;;;;;;;;;;;;;24.86;73.43;100649.34;7283246;19;152119;-51
2021/09/09 03:10:48;;;;;;;;;;;;;;;24.86;73.28;100657.81;7284844;19;153607;-51
2021/09/09 03:13:15;;;;;;;;;;;;;;;24.86;73.79;100660.66;7282019;19;153430;-51
2021/09/09 03:15:42;;;;;;;;;;;;;;;24.85;73.04;100664.63;7280983;19;152259;-51
2021/09/09 03:18:09;;;;;;;;;;;;;;;24.88;72.59;100672.47;7281875;19;152967;-51
2021/09/09 03:20:35;;;;;;;;;;;;;;;24.86;72.90;100668.28;7273125;19;154418;-50
2021/09/09 03:23:02;;;;;;;;;;;;;;;24.84;73.34;100671.47;7279052;19;151859;-52
2021/09/09 03:25:29;;;;;;;;;;;;;;;24.83;72.76;100672.63;7283690;19;153064;-52
2021/09/09 03:27:55;;;;;;;;;;;;;;;24.85;72.88;100667.44;7283020;19;151857;-51
2021/09/09 03:30:22;;;;;;;;;;;;;;;24.86;73.07;100666.31;7284690;19;152803;-51
2021/09/09 03:32:49;;;;;;;;;;;;;;;24.87;72.87;100665.13;7280689;19;153370;-51
2021/09/09 03:35:15;;;;;;;;;;;;;;;24.86;72.72;100666.31;7279813;19;152423;-51
2021/09/09 03:37:42;;;;;;;;;;;;;;;24.87;72.56;100659.50;7281464;19;153471;-51
2021/09/09 03:40:09;;;;;;;;;;;;;;;24.86;72.72;100655.00;7277183;19;153331;-51
2021/09/09 03:42:37;;;;;;;;;;;;;;;24.85;72.23;100658.97;7281303;19;153150;-51
2021/09/09 03:45:04;;;;;;;;;;;;;;;24.86;72.60;100662.63;7282290;19;152083;-51
2021/09/09 03:47:31;;;;;;;;;;;;;;;24.85;72.55;100649.69;7288943;19;154026;-50
2021/09/09 03:49:57;;;;;;;;;;;;;;;24.84;72.61;100651.69;7282218;19;153239;-51
2021/09/09 03:52:24;;;;;;;;;;;;;;;24.83;72.65;100647.19;7280099;19;153387;-51
2021/09/09 03:54:51;;;;;;;;;;;;;;;24.84;72.54;100646.03;7280962;19;152051;-50
2021/09/09 03:57:17;;;;;;;;;;;;;;;24.87;72.75;100641.69;7279533;19;153677;-51
2021/09/09 03:59:44;;;;;;;;;;;;;;;24.85;72.57;100644.81;7274993;19;153571;-51
2021/09/09 04:02:11;;;;;;;;;;;;;;;24.84;72.60;100646.03;7280035;19;151814;-51
2021/09/09 04:04:38;;;;;;;;;;;;;;;24.81;72.35;100636.22;7282636;19;154520;-51
2021/09/09 04:07:04;;;;;;;;;;;;;;;24.80;72.98;100634.56;7280531;19;153563;-51
2021/09/09 04:09:31;;;;;;;;;;;;;;;24.84;72.76;100633.88;7289752;19;151530;-51
2021/09/09 04:11:58;;;;;;;;;;;;;;;24.81;72.44;100632.56;7284711;19;153399;-51
2021/09/09 04:14:24;;;;;;;;;;;;;;;24.81;72.22;100619.25;7286962;19;151858;-51
2021/09/09 04:16:52;;;;;;;;;;;;;;;24.81;72.40;100621.25;7286712;19;151722;-52
2021/09/09 04:19:19;;;;;;;;;;;;;;;24.80;72.71;100617.59;7286753;19;154025;-52
2021/09/09 04:21:46;;;;;;;;;;;;;;;24.81;72.85;100619.25;7287067;19;152455;-50
2021/09/09 04:24:13;;;;;;;;;;;;;;;24.82;72.49;100620.09;7285036;19;151763;-51
2021/09/09 04:26:39;;;;;;;;;;;;;;;24.80;72.38;100620.44;7284148;19;153927;-51
2021/09/09 04:29:06;;;;;;;;;;;;;;;24.80;72.31;100625.28;7287648;19;152103;-52
2021/09/09 04:31:34;;;;;;;;;;;;;;;24.80;72.67;100616.81;7290263;19;151758;-51
2021/09/09 04:34:01;;;;;;;;;;;;;;;24.77;72.09;100618.31;7288025;19;154637;-51
2021/09/09 04:36:28;;;;;;;;;;;;;;;24.78;72.29;100625.63;7286581;19;153367;-51
2021/09/09 04:38:54;;;;;;;;;;;;;;;24.79;72.09;100626.44;7283985;19;154345;-50
2021/09/09 04:41:21;;;;;;;;;;;;;;;24.83;72.25;100632.22;7288046;19;152119;-51
2021/09/09 04:43:48;;;;;;;;;;;;;;;24.83;72.37;100629.41;7288322;19;153152;-51
2021/09/09 04:46:14;;;;;;;;;;;;;;;24.81;71.91;100636.22;7284511;19;154509;-51
2021/09/09 04:48:41;;;;;;;;;;;;;;;24.80;72.19;100634.56;7287803;19;151664;-52
2021/09/09 04:51:08;;;;;;;;;;;;;;;24.82;72.27;100639.88;7284310;19;153193;-51
2021/09/09 04:53:35;;;;;;;;;;;;;;;24.84;72.32;100637.53;7293085;19;152059;-50
2021/09/09 04:56:02;;;;;;;;;;;;;;;24.83;71.97;100635.88;7286635;19;152275;-51
2021/09/09 04:58:29;;;;;;;;;;;;;;;24.79;71.61;100632.94;7286182;19;153642;-51
2021/09/09 05:00:55;;;;;;;;;;;;;;;24.79;71.75;100627.28;7283355;19;154028;-51
2021/09/09 05:03:22;;;;;;;;;;;;;;;24.81;72.07;100632.56;7286197;19;153346;-51
2021/09/09 05:05:49;;;;;;;;;;;;;;;24.84;72.19;100642.38;7285493;19;154606;-51
2021/09/09 05:08:16;;;;;;;;;;;;;;;24.85;71.59;100646.84;7287472;19;151549;-51
2021/09/09 05:10:43;;;;;;;;;;;;;;;24.85;71.66;100639.19;7288038;19;152864;-51
2021/09/09 05:13:10;;;;;;;;;;;;;;;24.84;71.31;100636.72;7293662;19;153973;-56
2021/09/09 05:15:36;;;;;;;;;;;;;;;24.83;71.29;100638.72;7285919;19;152086;-51
2021/09/09 05:18:03;;;;;;;;;;;;;;;24.84;71.49;100640.38;7284756;19;154369;-51
2021/09/09 05:20:29;;;;;;;;;;;;;;;24.84;71.23;100646.03;7285101;19;151710;-51
2021/09/09 05:22:56;;;;;;;;;;;;;;;24.85;71.65;100638.38;7286331;19;153343;-51
2021/09/09 05:25:23;;;;;;;;;;;;;;;24.85;71.23;100644.03;7283286;19;153857;-51
2021/09/09 05:27:50;;;;;;;;;;;;;;;24.83;71.15;100644.38;7284754;19;152197;-51
2021/09/09 05:30:16;;;;;;;;;;;;;;;24.81;71.52;100641.88;7285510;19;152680;-51
2021/09/09 05:32:43;;;;;;;;;;;;;;;24.81;71.67;100636.22;7284939;19;153386;-51
2021/09/09 05:35:10;;;;;;;;;;;;;;;24.80;71.45;100639.41;7292674;19;151734;-51
2021/09/09 05:37:36;;;;;;;;;;;;;;;24.83;71.66;100640.72;7285512;19;154236;-51
2021/09/09 05:40:04;;;;;;;;;;;;;;;24.80;71.39;100639.41;7286573;19;152042;-51
2021/09/09 05:42:31;;;;;;;;;;;;;;;24.80;71.85;100633.75;7281975;19;153856;-50
2021/09/09 05:44:57;;;;;;;;;;;;;;;24.75;71.83;100631.13;7283337;19;154293;-50
2021/09/09 05:47:24;;;;;;;;;;;;;;;24.76;71.78;100638.41;7281012;19;151799;-50
2021/09/09 05:49:51;;;;;;;;;;;;;;;24.74;71.82;100630.31;7282848;19;153440;-50
2021/09/09 05:52:18;;;;;;;;;;;;;;;24.74;71.68;100640.78;7285756;19;155085;-50
2021/09/09 05:54:44;;;;;;;;;;;;;;;24.74;72.05;100635.97;7285508;19;152014;-50
2021/09/09 05:57:11;;;;;;;;;;;;;;;24.74;71.73;100637.94;7290357;19;153165;-50
2021/09/09 05:59:37;;;;;;;;;;;;;;;24.75;72.05;100633.97;7282927;19;154014;-50
2021/09/09 06:02:12;;;;;;;;;;;;;;;24.77;71.94;100646.56;7283923;19;152757;-50
2021/09/09 06:04:40;;;;;;;;;;;;;;;24.74;72.31;100640.78;7286685;19;153410;-50
2021/09/09 06:07:07;;;;;;;;;;;;;;;24.74;72.24;100635.97;7282360;19;151787;-50
2021/09/09 06:09:34;;;;;;;;;;;;;;;24.74;71.84;100635.13;7288275;19;152773;-50
2021/09/09 06:12:00;;;;;;;;;;;;;;;24.75;72.10;100628.31;7285228;19;154072;-50
2021/09/09 06:14:29;;;;;;;;;;;;;;;24.74;72.14;100635.97;7286641;19;151646;-50
2021/09/09 06:16:55;;;;;;;;;;;;;;;24.78;72.17;100636.09;7285982;19;152855;-50
2021/09/09 06:19:22;;;;;;;;;;;;;;;24.76;71.72;100627.13;7292997;19;154182;-50
2021/09/09 06:21:49;;;;;;;;;;;;;;;24.76;72.21;100629.94;7286224;19;152789;-50
2021/09/09 06:24:16;;;;;;;;;;;;;;;24.77;71.99;100634.44;7284763;19;153856;-50
2021/09/09 06:26:42;;;;;;;;;;;;;;;24.76;71.75;100632.78;7286543;19;151810;-50
2021/09/09 06:29:09;;;;;;;;;;;;;;;24.79;71.94;100627.28;7286258;19;154421;-51
2021/09/09 06:31:36;;;;;;;;;;;;;;;24.75;71.84;100631.13;7283394;19;153698;-49
2021/09/09 06:34:02;;;;;;;;;;;;;;;24.74;72.08;100626.66;7284017;19;151901;-50
2021/09/09 06:36:29;;;;;;;;;;;;;;;24.74;72.19;100629.47;7285063;19;153088;-50
2021/09/09 06:38:56;;;;;;;;;;;;;;;24.74;72.24;100630.31;7282265;19;153888;-50
2021/09/09 06:41:22;;;;;;;;;;;;;;;24.73;72.24;100633.47;7291128;19;151925;-50
2021/09/09 06:43:49;;;;;;;;;;;;;;;24.74;72.05;100637.94;7280674;19;153498;-49
2021/09/09 06:46:16;;;;;;;;;;;;;;;24.73;72.12;100644.78;7283498;19;151931;-50
2021/09/09 06:48:43;;;;;;;;;;;;;;;24.71;72.04;100630.97;7286764;19;152598;-50
2021/09/09 06:51:10;;;;;;;;;;;;;;;24.71;72.52;100635.84;7281993;19;153656;-49
2021/09/09 06:53:36;;;;;;;;;;;;;;;24.72;72.67;100634.63;7283499;19;151916;-50
2021/09/09 06:56:03;;;;;;;;;;;;;;;24.71;72.72;100636.63;7284305;19;151993;-50
2021/09/09 06:58:30;;;;;;;;;;;;;;;24.73;72.53;100636.28;7283273;19;153309;-50
2021/09/09 07:00:57;;;;;;;;;;;;;;;24.74;72.33;100646.44;7287505;19;151860;-50
2021/09/09 07:03:29;;;;;;;;;;;;;;;24.73;72.63;100647.59;7283047;19;153403;-50
2021/09/09 07:05:57;;;;;;;;;;;;;;;24.72;72.82;100635.47;7283272;19;151540;-50
2021/09/09 07:08:24;;;;;;;;;;;;;;;24.72;72.96;100640.28;7283104;19;152110;-50
2021/09/09 07:10:50;;;;;;;;;;;;;;;24.74;72.64;100644.44;7280501;19;154277;-50
2021/09/09 07:13:17;;;;;;;;;;;;;;;24.75;73.05;100653.75;7285115;19;151616;-50
2021/09/09 07:15:44;;;;;;;;;;;;;;;24.75;72.93;100656.56;7284732;19;153221;-50
2021/09/09 07:18:11;;;;;;;;;;;;;;;24.73;72.65;100653.25;7278926;19;153793;-50
2021/09/09 07:20:38;;;;;;;;;;;;;;;24.72;73.05;100649.59;7284725;19;151966;-49
2021/09/09 07:23:05;;;;;;;;;;;;;;;24.71;73.14;100645.09;7290530;19;152229;-50
2021/09/09 07:25:32;;;;;;;;;;;;;;;24.71;72.98;100647.13;7283731;19;151889;-49
2021/09/09 07:27:58;;;;;;;;;;;;;;;24.74;73.32;100658.56;7281759;19;153654;-50
2021/09/09 07:30:25;;;;;;;;;;;;;;;24.76;72.86;100655.38;7283676;19;154049;-50
2021/09/09 07:32:53;;;;;;;;;;;;;;;24.73;73.14;100656.06;7281403;19;152330;-51
2021/09/09 07:35:20;;;;;;;;;;;;;;;24.73;73.08;100647.59;7284136;19;152184;-50
2021/09/09 07:37:47;;;;;;;;;;;;;;;24.73;73.70;100661.72;7281447;19;155352;-51
2021/09/09 07:40:13;;;;;;;;;;;;;;;24.78;71.86;100653.88;7279616;19;152303;-50
2021/09/09 07:42:40;;;;;;;;;;;;;;;24.68;71.97;100647.81;7281786;19;151937;-50
2021/09/09 07:45:07;;;;;;;;;;;;;;;24.61;70.80;100656.00;7289634;19;153695;-49
2021/09/09 07:47:35;;;;;;;;;;;;;;;24.62;69.80;100664.13;7282551;19;152246;-50
2021/09/09 07:50:02;;;;;;;;;;;;;;;24.55;69.48;100663.84;7279528;19;153289;-50
2021/09/09 07:52:29;;;;;;;;;;;;;;;24.55;68.76;100666.69;7282863;19;151892;-50
2021/09/09 07:54:56;;;;;;;;;;;;;;;24.52;69.30;100664.53;7281920;19;152116;-50
2021/09/09 07:57:22;;;;;;;;;;;;;;;24.51;69.07;100671.34;7280008;19;153944;-50
2021/09/09 07:59:49;;;;;;;;;;;;;;;24.55;68.35;100669.50;7282420;19;151903;-50
2021/09/09 08:02:16;;;;;;;;;;;;;;;24.56;68.04;100674.00;7279722;19;152509;-49
2021/09/09 08:04:43;;;;;;;;;;;;;;;24.56;67.96;100678.81;7281865;19;153333;-50
2021/09/09 08:07:10;;;;;;;;;;;;;;;24.55;67.95;100680.81;7291226;19;151641;-50
2021/09/09 08:09:37;;;;;;;;;;;;;;;24.57;67.75;100674.81;7280493;19;153462;-50
2021/09/09 08:12:04;;;;;;;;;;;;;;;24.55;67.90;100683.63;7282194;19;152511;-50
2021/09/09 08:14:31;;;;;;;;;;;;;;;24.50;68.38;100691.47;7279273;19;151917;-50
2021/09/09 08:16:58;;;;;;;;;;;;;;;24.46;68.37;100684.84;7278593;19;154135;-50
2021/09/09 08:19:25;;;;;;;;;;;;;;;24.47;68.08;100697.81;7273570;19;151714;-50
2021/09/09 08:21:51;;;;;;;;;;;;;;;24.47;67.68;100698.63;7280605;19;152742;-50
2021/09/09 08:24:18;;;;;;;;;;;;;;;24.47;67.44;100701.47;7280998;19;153216;-50
2021/09/09 08:26:45;;;;;;;;;;;;;;;24.44;68.11;100696.47;7280130;19;151660;-50
2021/09/09 08:29:12;;;;;;;;;;;;;;;24.44;67.96;100692.84;7285991;19;153445;-50
2021/09/09 08:31:39;;;;;;;;;;;;;;;24.44;67.71;100688.00;7278670;19;151858;-50
2021/09/09 08:34:06;;;;;;;;;;;;;;;24.45;68.28;100697.31;7280882;19;153124;-49
2021/09/09 08:36:32;;;;;;;;;;;;;;;24.40;68.24;100694.69;7278598;19;154924;-50
2021/09/09 08:38:59;;;;;;;;;;;;;;;24.44;67.44;100699.28;7281772;19;151815;-49
2021/09/09 08:41:26;;;;;;;;;;;;;;;24.42;67.24;100693.19;7279745;19;152594;-50
2021/09/09 08:43:53;;;;;;;;;;;;;;;24.46;67.08;100690.50;7280466;19;153740;-50
2021/09/09 08:46:20;;;;;;;;;;;;;;;24.44;66.65;100687.19;7282118;19;152016;-50
2021/09/09 08:48:48;;;;;;;;;;;;;;;24.41;66.74;100682.22;7282075;19;152800;-50
2021/09/09 08:51:16;;;;;;;;;;;;;;;24.42;66.46;100690.34;7288239;19;154079;-50
2021/09/09 08:53:44;;;;;;;;;;;;;;;24.39;67.60;100682.56;7278723;19;153161;-50
2021/09/09 08:56:13;;;;;;;;;;;;;;;24.40;67.20;100681.38;7276744;19;153438;-50
2021/09/09 08:58:40;;;;;;;;;;;;;;;24.38;67.25;100680.09;7285832;19;152278;-51
2021/09/09 09:01:15;;;;;;;;;;;;;;;24.38;67.30;100694.19;7284299;19;152970;-50
2021/09/09 09:03:43;;;;;;;;;;;;;;;24.34;67.50;100697.72;7282400;19;152522;-50
2021/09/09 09:06:30;;;;;;;;;;;;;;;24.39;67.40;100695.88;7286906;19;151763;-49
2021/09/09 09:08:59;;;;;;;;;;;;;;;24.38;67.13;100694.19;7287197;19;153348;-50
2021/09/09 09:11:26;;;;;;;;;;;;;;;24.40;67.13;100703.16;7291069;19;152633;-51
2021/09/09 09:13:53;;;;;;;;;;;;;;;24.40;67.20;100700.31;7288393;19;152883;-50
2021/09/09 09:16:21;;;;;;;;;;;;;;;24.38;67.72;100702.69;7288055;19;154117;-50
2021/09/09 09:18:48;;;;;;;;;;;;;;;24.36;67.74;100697.34;7288137;19;153626;-50
2021/09/09 09:21:16;;;;;;;;;;;;;;;24.34;67.81;100700.53;7285818;19;152620;-50
2021/09/09 09:23:46;;;;;;;;;;;;;;;24.34;68.26;100694.06;7283978;19;153275;-50
2021/09/09 09:26:24;;;;;;;;;;;;;;;24.27;68.88;100693.75;7286186;19;151971;-50
2021/09/09 09:28:52;;;;;;;;;;;;;;;24.31;67.86;100692.72;7286960;19;152545;-50
2021/09/09 09:31:21;;;;;;;;;;;;;;;24.32;67.37;100685.91;7286525;19;154222;-50
2021/09/09 09:33:57;;;;;;;;;;;;;;;24.37;67.19;100687.72;7291898;19;152197;-50
2021/09/09 09:36:32;;;;;;;;;;;;;;;24.32;67.77;100691.56;7286769;19;153440;-50
2021/09/09 09:39:16;;;;;;;;;;;;;;;24.33;68.59;100689.56;7284373;19;151801;-50
2021/09/09 09:41:53;;;;;;;;;;;;;;;24.35;67.85;100678.75;7284564;19;151726;-50
2021/09/09 09:44:29;;;;;;;;;;;;;;;24.35;68.36;100685.22;7285572;19;153456;-52
2021/09/09 09:47:05;;;;;;;;;;;;;;;24.33;67.70;100679.13;7285346;19;152570;-50
2021/09/09 09:49:33;;;;;;;;;;;;;;;24.28;68.35;100687.78;7286096;19;154079;-51
2021/09/09 09:52:01;;;;;;;;;;;;;;;24.20;68.88;100699.13;7283779;19;155072;-50
2021/09/09 09:54:29;;;;;;;;;;;;;;;24.06;69.23;100692.84;7283944;19;152166;-50
2021/09/09 09:56:57;;;;;;;;;;;;;;;24.05;69.14;100691.16;7292576;19;152772;-51
2021/09/09 09:59:24;;;;;;;;;;;;;;;24.09;69.11;100678.03;7285093;19;151892;-50
2021/09/09 10:01:51;;;;;;;;;;;;;;;24.12;69.39;100686.66;7280821;19;152267;-51
2021/09/09 10:04:20;;;;;;;;;;;;;;;24.14;69.59;100681.50;7274401;19;153419;-51
2021/09/09 10:06:49;;;;;;;;;;;;;;;24.16;69.44;100687.69;7284485;19;151675;-51
2021/09/09 10:09:16;;;;;;;;;;;;;;;24.18;69.01;100684.50;7282982;19;152913;-50
2021/09/09 10:11:44;;;;;;;;;;;;;;;24.19;69.15;100681.34;7282439;19;153904;-51
2021/09/09 10:14:16;;;;;;;;;;;;;;;24.22;69.07;100679.81;7287561;19;151660;-50
2021/09/09 10:16:43;;;;;;;;;;;;;;;24.25;69.09;100682.00;7284518;19;153039;-50
2021/09/09 10:19:11;;;;;;;;;;;;;;;24.25;69.13;100687.63;7290736;19;152199;-50
2021/09/09 10:21:46;;;;;;;;;;;;;;;24.23;69.42;100684.31;7283820;19;152931;-51
2021/09/09 10:24:15;;;;;;;;;;;;;;;24.26;69.53;100680.78;7284971;19;153283;-51
2021/09/09 10:26:42;;;;;;;;;;;;;;;24.25;69.43;100680.00;7284201;19;151687;-51
2021/09/09 10:29:28;;;;;;;;;;;;;;;24.24;69.69;100683.16;7285114;19;152621;-51
2021/09/09 10:31:55;;;;;;;;;;;;;;;24.28;69.60;100673.66;7282670;19;154092;-50
2021/09/09 10:34:23;;;;;;;;;;;;;;;24.29;69.42;100672.50;7284321;19;152002;-51
2021/09/09 10:36:50;;;;;;;;;;;;;;;24.18;69.41;100674.03;7281974;19;153637;-50
2021/09/09 10:39:22;;;;;;;;;;;;;;;24.10;69.47;100682.53;7284707;19;153259;-50
2021/09/09 10:41:49;;;;;;;;;;;;;;;24.05;69.88;100672.25;7290067;19;151782;-49
2021/09/09 10:44:16;;;;;;;;;;;;;;;24.06;69.99;100676.72;7282778;19;153505;-50
2021/09/09 10:46:45;;;;;;;;;;;;;;;24.10;69.77;100680.53;7285414;19;153013;-51
2021/09/09 10:49:20;;;;;;;;;;;;;;;24.12;70.23;100678.19;7286027;19;152588;-50
2021/09/09 10:51:56;;;;;;;;;;;;;;;24.14;69.87;100673.03;7282208;19;154146;-49
2021/09/09 10:54:22;;;;;;;;;;;;;;;24.17;69.84;100680.84;7281797;19;152112;-51
2021/09/09 10:56:49;;;;;;;;;;;;;;;24.19;69.37;100672.03;7286247;19;153317;-50
2021/09/09 10:59:20;;;;;;;;;;;;;;;24.18;69.58;100678.84;7283066;19;153845;-50
2021/09/09 11:01:48;;;;;;;;;;;;;;;24.21;69.91;100662.06;7284993;19;152714;-50
2021/09/09 11:04:26;;;;;;;;;;;;;;;24.20;70.22;100674.53;7284425;19;153211;-50
2021/09/09 11:06:53;;;;;;;;;;;;;;;24.19;69.91;100664.41;7285242;19;151827;-51
2021/09/09 11:09:20;;;;;;;;;;;;;;;24.20;70.06;100665.22;7285270;19;152008;-51
2021/09/09 11:11:58;;;;;;;;;;;;;;;24.21;70.08;100662.06;7282845;19;153372;-49
2021/09/09 11:14:25;;;;;;;;;;;;;;;24.20;69.92;100657.59;7282932;19;152301;-51
2021/09/09 11:16:52;;;;;;;;;;;;;;;24.22;70.22;100662.88;7284077;19;153295;-50
2021/09/09 11:19:22;;;;;;;;;;;;;;;24.22;70.33;100658.06;7281244;19;154139;-50
2021/09/09 11:21:50;;;;;;;;;;;;;;;24.25;70.70;100656.56;7281935;19;152117;-50
2021/09/09 11:24:17;;;;;;;;;;;;;;;24.24;70.56;100660.56;7291817;19;152786;-51
2021/09/09 11:26:45;;;;;;;;;;;;;;;24.24;70.87;100672.69;7281877;19;152352;-51
2021/09/09 11:29:12;;;;;;;;;;;;;;;24.23;70.97;100662.56;7284624;19;152571;-50
2021/09/09 11:31:48;;;;;;;;;;;;;;;24.24;70.62;100669.88;7282968;19;153992;-51
2021/09/09 11:34:20;;;;;;;;;;;;;;;24.24;70.27;100667.03;7281669;19;151855;-51
2021/09/09 11:36:47;;;;;;;;;;;;;;;24.28;70.29;100667.19;7282348;19;153854;-50
2021/09/09 11:39:16;;;;;;;;;;;;;;;24.25;70.15;100660.22;7282317;19;153736;-49
2021/09/09 11:41:43;;;;;;;;;;;;;;;24.24;69.52;100650.09;7282724;19;151718;-51
2021/09/09 11:44:11;;;;;;;;;;;;;;;24.24;70.14;100655.75;7278660;19;153586;-50
2021/09/09 11:46:39;;;;;;;;;;;;;;;24.24;70.55;100661.41;7289432;19;153456;-50
2021/09/09 11:49:07;;;;;;;;;;;;;;;24.24;70.80;100655.75;7280213;19;153797;-50
2021/09/09 11:51:35;;;;;;;;;;;;;;;24.24;71.30;100658.56;7282629;19;152329;-50
2021/09/09 11:54:03;;;;;;;;;;;;;;;24.22;71.98;100655.25;7280481;19;151880;-51
2021/09/09 11:56:29;;;;;;;;;;;;;;;24.24;71.82;100658.56;7282128;19;153146;-50
2021/09/09 11:59:01;;;;;;;;;;;;;;;24.24;71.96;100650.09;7282346;19;154156;-51
2021/09/09 12:01:29;;;;;;;;;;;;;;;24.25;72.02;100659.41;7283639;19;151741;-51
2021/09/09 12:03:58;;;;;;;;;;;;;;;24.26;72.02;100663.84;7279348;19;153249;-51
2021/09/09 12:06:26;;;;;;;;;;;;;;;24.26;71.45;100650.56;7276052;19;153945;-51
2021/09/09 12:08:53;;;;;;;;;;;;;;;24.24;71.66;100667.03;7288927;19;154227;-51
2021/09/09 12:11:20;;;;;;;;;;;;;;;24.25;71.12;100656.56;7279511;19;152695;-50
2021/09/09 12:13:47;;;;;;;;;;;;;;;24.23;71.51;100648.44;7282765;19;151872;-51
2021/09/09 12:16:15;;;;;;;;;;;;;;;24.26;71.86;100652.56;7281950;19;153194;-50
2021/09/09 12:18:44;;;;;;;;;;;;;;;24.28;72.21;100656.72;7281479;19;152914;-51
2021/09/09 12:21:12;;;;;;;;;;;;;;;24.29;72.46;100647.09;7281097;19;152001;-50
2021/09/09 12:23:55;;;;;;;;;;;;;;;24.28;73.02;100665.19;7277810;19;152209;-51
2021/09/09 12:26:21;;;;;;;;;;;;;;;24.29;72.97;100663.19;7281218;19;154315;-50
2021/09/09 12:28:48;;;;;;;;;;;;;;;24.27;73.04;100655.06;7282033;19;151738;-50
2021/09/09 12:31:15;;;;;;;;;;;;;;;24.27;73.32;100654.22;7289224;19;151778;-50